sensor_id;sensor_type;location;lat;lon;timestamp;temperature;humidity
36132;DHT22;22185;48.738;9.324;2023-05-16T00:01:28;11.20;99.90
36132;DHT22;22185;48.738;9.324;2023-05-16T00:03:30;11.10;99.90
36132;DHT22;22185;48.738;9.324;2023-05-16T00:05:33;11.10;99.90
36132;DHT22;22185;48.738;9.324;2023-05-16T00:07:35;11.10;99.90
36132;DHT22;22185;48.738;9.324;2023-05-16T00:09:37;11.10;99.90
36132;DHT22;22185;48.738;9.324;2023-05-16T00:11:38;11.20;99.90
36132;DHT22;22185;48.738;9.324;2023-05-16T00:13:40;11.10;99.90
36132;DHT22;22185;48.738;9.324;2023-05-16T00:15:42;11.10;99.90
36132;DHT22;22185;48.738;9.324;2023-05-16T00:17:45;11.10;99.90
36132;DHT22;22185;48.738;9.324;2023-05-16T00:19:48;11.10;99.90
36132;DHT22;22185;48.738;9.324;2023-05-16T00:21:51;11.00;99.90
36132;DHT22;22185;48.738;9.324;2023-05-16T00:23:53;11.00;99.90
36132;DHT22;22185;48.738;9.324;2023-05-16T00:25:55;11.00;99.90
36132;DHT22;22185;48.738;9.324;2023-05-16T00:27:56;11.10;99.90
36132;DHT22;22185;48.738;9.324;2023-05-16T00:30:00;11.10;99.90
36132;DHT22;22185;48.738;9.324;2023-05-16T00:32:01;11.10;99.90
36132;DHT22;22185;48.738;9.324;2023-05-16T00:34:03;11.10;99.90
36132;DHT22;22185;48.738;9.324;2023-05-16T00:36:05;11.10;99.90
36132;DHT22;22185;48.738;9.324;2023-05-16T00:38:07;11.00;99.90
36132;DHT22;22185;48.738;9.324;2023-05-16T00:40:10;11.10;99.90
36132;DHT22;22185;48.738;9.324;2023-05-16T00:42:12;11.10;99.90
36132;DHT22;22185;48.738;9.324;2023-05-16T00:44:14;11.20;99.90
36132;DHT22;22185;48.738;9.324;2023-05-16T00:46:16;11.10;99.90
36132;DHT22;22185;48.738;9.324;2023-05-16T00:48:19;11.00;99.90
36132;DHT22;22185;48.738;9.324;2023-05-16T00:50:21;11.00;99.90
36132;DHT22;22185;48.738;9.324;2023-05-16T00:52:23;11.10;99.90
36132;DHT22;22185;48.738;9.324;2023-05-16T00:54:26;11.10;99.90
36132;DHT22;22185;48.738;9.324;2023-05-16T00:56:29;11.00;99.90
36132;DHT22;22185;48.738;9.324;2023-05-16T00:58:31;11.00;99.90
36132;DHT22;22185;48.738;9.324;2023-05-16T01:00:34;11.00;99.90
36132;DHT22;22185;48.738;9.324;2023-05-16T01:02:37;11.10;99.90
36132;DHT22;22185;48.738;9.324;2023-05-16T01:04:40;11.20;99.90
36132;DHT22;22185;48.738;9.324;2023-05-16T01:06:42;11.20;99.90
36132;DHT22;22185;48.738;9.324;2023-05-16T01:08:44;11.10;99.90
36132;DHT22;22185;48.738;9.324;2023-05-16T01:17:19;10.90;99.90
36132;DHT22;22185;48.738;9.324;2023-05-16T01:21:38;10.90;99.90
36132;DHT22;22185;48.738;9.324;2023-05-16T01:24:03;10.90;99.90
36132;DHT22;22185;48.738;9.324;2023-05-16T01:28:16;10.80;99.90
36132;DHT22;22185;48.738;9.324;2023-05-16T01:30:18;10.90;99.90
36132;DHT22;22185;48.738;9.324;2023-05-16T01:32:20;10.90;99.90
36132;DHT22;22185;48.738;9.324;2023-05-16T01:34:23;10.80;99.90
36132;DHT22;22185;48.738;9.324;2023-05-16T01:36:29;10.70;99.90
36132;DHT22;22185;48.738;9.324;2023-05-16T01:40:47;10.80;99.90
36132;DHT22;22185;48.738;9.324;2023-05-16T01:42:52;10.80;99.90
36132;DHT22;22185;48.738;9.324;2023-05-16T01:45:40;10.80;99.90
36132;DHT22;22185;48.738;9.324;2023-05-16T01:47:21;10.80;99.90
36132;DHT22;22185;48.738;9.324;2023-05-16T01:49:30;10.80;99.90
36132;DHT22;22185;48.738;9.324;2023-05-16T01:51:32;10.80;99.90
36132;DHT22;22185;48.738;9.324;2023-05-16T01:53:37;10.90;99.90
36132;DHT22;22185;48.738;9.324;2023-05-16T01:57:44;10.80;99.90
36132;DHT22;22185;48.738;9.324;2023-05-16T01:59:46;10.80;99.90
36132;DHT22;22185;48.738;9.324;2023-05-16T02:01:48;10.90;99.90
36132;DHT22;22185;48.738;9.324;2023-05-16T02:03:50;10.90;99.90
36132;DHT22;22185;48.738;9.324;2023-05-16T02:05:52;10.80;99.90
36132;DHT22;22185;48.738;9.324;2023-05-16T02:07:53;10.80;99.90
36132;DHT22;22185;48.738;9.324;2023-05-16T02:09:55;10.90;99.90
36132;DHT22;22185;48.738;9.324;2023-05-16T02:11:57;10.90;99.90
36132;DHT22;22185;48.738;9.324;2023-05-16T02:13:58;10.90;99.90
36132;DHT22;22185;48.738;9.324;2023-05-16T02:16:01;10.90;99.90
36132;DHT22;22185;48.738;9.324;2023-05-16T02:18:03;10.90;99.90
36132;DHT22;22185;48.738;9.324;2023-05-16T02:20:06;10.90;99.90
36132;DHT22;22185;48.738;9.324;2023-05-16T02:22:12;10.90;99.90
36132;DHT22;22185;48.738;9.324;2023-05-16T02:24:13;11.10;99.90
36132;DHT22;22185;48.738;9.324;2023-05-16T02:26:15;11.30;99.90
36132;DHT22;22185;48.738;9.324;2023-05-16T02:28:17;11.40;99.90
36132;DHT22;22185;48.738;9.324;2023-05-16T02:30:18;11.40;99.90
36132;DHT22;22185;48.738;9.324;2023-05-16T02:32:20;11.30;99.90
36132;DHT22;22185;48.738;9.324;2023-05-16T02:34:22;11.30;99.90
36132;DHT22;22185;48.738;9.324;2023-05-16T02:36:24;11.20;99.90
36132;DHT22;22185;48.738;9.324;2023-05-16T02:38:26;11.10;99.90
36132;DHT22;22185;48.738;9.324;2023-05-16T02:40:27;11.10;99.90
36132;DHT22;22185;48.738;9.324;2023-05-16T02:42:29;11.10;99.90
36132;DHT22;22185;48.738;9.324;2023-05-16T02:44:32;11.10;99.90
36132;DHT22;22185;48.738;9.324;2023-05-16T02:46:34;11.20;99.90
36132;DHT22;22185;48.738;9.324;2023-05-16T02:48:36;11.30;99.90
36132;DHT22;22185;48.738;9.324;2023-05-16T02:50:37;11.30;99.90
36132;DHT22;22185;48.738;9.324;2023-05-16T02:52:40;11.20;99.90
36132;DHT22;22185;48.738;9.324;2023-05-16T02:54:42;11.20;99.90
36132;DHT22;22185;48.738;9.324;2023-05-16T02:56:45;11.20;99.90
36132;DHT22;22185;48.738;9.324;2023-05-16T02:58:47;11.20;99.90
36132;DHT22;22185;48.738;9.324;2023-05-16T03:00:49;11.20;99.90
36132;DHT22;22185;48.738;9.324;2023-05-16T03:02:52;11.20;99.90
36132;DHT22;22185;48.738;9.324;2023-05-16T03:04:55;11.20;99.90
36132;DHT22;22185;48.738;9.324;2023-05-16T03:06:57;11.20;99.90
36132;DHT22;22185;48.738;9.324;2023-05-16T03:08:58;11.20;99.90
36132;DHT22;22185;48.738;9.324;2023-05-16T03:11:00;11.20;99.90
36132;DHT22;22185;48.738;9.324;2023-05-16T03:13:02;11.20;99.90
36132;DHT22;22185;48.738;9.324;2023-05-16T03:15:03;11.20;99.90
36132;DHT22;22185;48.738;9.324;2023-05-16T03:17:06;11.20;99.90
36132;DHT22;22185;48.738;9.324;2023-05-16T03:19:08;11.10;99.90
36132;DHT22;22185;48.738;9.324;2023-05-16T03:21:10;11.10;99.90
36132;DHT22;22185;48.738;9.324;2023-05-16T03:23:11;11.10;99.90
36132;DHT22;22185;48.738;9.324;2023-05-16T03:25:13;11.10;99.90
36132;DHT22;22185;48.738;9.324;2023-05-16T03:27:15;11.10;99.90
36132;DHT22;22185;48.738;9.324;2023-05-16T03:29:17;11.00;99.90
36132;DHT22;22185;48.738;9.324;2023-05-16T03:31:19;11.00;99.90
36132;DHT22;22185;48.738;9.324;2023-05-16T03:33:21;11.00;99.90
36132;DHT22;22185;48.738;9.324;2023-05-16T03:35:29;11.00;99.90
36132;DHT22;22185;48.738;9.324;2023-05-16T03:37:31;11.00;99.90
36132;DHT22;22185;48.738;9.324;2023-05-16T03:39:33;10.90;99.90
36132;DHT22;22185;48.738;9.324;2023-05-16T03:41:35;10.80;99.90
36132;DHT22;22185;48.738;9.324;2023-05-16T03:43:37;10.80;99.90
36132;DHT22;22185;48.738;9.324;2023-05-16T03:45:38;10.80;99.90
36132;DHT22;22185;48.738;9.324;2023-05-16T03:47:41;10.70;99.90
36132;DHT22;22185;48.738;9.324;2023-05-16T03:49:43;10.60;99.90
36132;DHT22;22185;48.738;9.324;2023-05-16T03:51:44;10.60;99.90
36132;DHT22;22185;48.738;9.324;2023-05-16T03:53:46;10.60;99.90
36132;DHT22;22185;48.738;9.324;2023-05-16T03:55:48;10.60;99.90
36132;DHT22;22185;48.738;9.324;2023-05-16T03:57:49;10.60;99.90
36132;DHT22;22185;48.738;9.324;2023-05-16T03:59:52;10.60;99.90
36132;DHT22;22185;48.738;9.324;2023-05-16T04:01:55;10.60;99.90
36132;DHT22;22185;48.738;9.324;2023-05-16T04:03:57;10.60;99.90
36132;DHT22;22185;48.738;9.324;2023-05-16T04:05:59;10.70;99.90
36132;DHT22;22185;48.738;9.324;2023-05-16T04:08:00;10.70;99.90
36132;DHT22;22185;48.738;9.324;2023-05-16T04:10:02;10.70;99.90
36132;DHT22;22185;48.738;9.324;2023-05-16T04:12:04;10.80;99.90
36132;DHT22;22185;48.738;9.324;2023-05-16T04:14:06;10.80;99.90
36132;DHT22;22185;48.738;9.324;2023-05-16T04:16:08;10.90;99.90
36132;DHT22;22185;48.738;9.324;2023-05-16T04:18:12;10.90;99.90
36132;DHT22;22185;48.738;9.324;2023-05-16T04:20:14;10.90;99.90
36132;DHT22;22185;48.738;9.324;2023-05-16T04:22:16;10.90;99.90
36132;DHT22;22185;48.738;9.324;2023-05-16T04:24:18;11.00;99.90
36132;DHT22;22185;48.738;9.324;2023-05-16T04:26:19;11.00;99.90
36132;DHT22;22185;48.738;9.324;2023-05-16T04:28:23;11.10;99.90
36132;DHT22;22185;48.738;9.324;2023-05-16T04:30:24;11.10;99.90
36132;DHT22;22185;48.738;9.324;2023-05-16T04:32:27;11.20;99.90
36132;DHT22;22185;48.738;9.324;2023-05-16T04:34:30;11.30;99.90
36132;DHT22;22185;48.738;9.324;2023-05-16T04:36:33;11.40;99.90
36132;DHT22;22185;48.738;9.324;2023-05-16T04:38:35;11.40;99.90
36132;DHT22;22185;48.738;9.324;2023-05-16T04:40:39;11.50;99.90
36132;DHT22;22185;48.738;9.324;2023-05-16T04:42:42;11.50;99.90
36132;DHT22;22185;48.738;9.324;2023-05-16T04:44:44;11.50;99.90
36132;DHT22;22185;48.738;9.324;2023-05-16T04:46:46;11.60;99.90
36132;DHT22;22185;48.738;9.324;2023-05-16T04:48:48;11.70;99.90
36132;DHT22;22185;48.738;9.324;2023-05-16T04:50:50;11.70;99.90
36132;DHT22;22185;48.738;9.324;2023-05-16T04:52:52;11.70;99.90
36132;DHT22;22185;48.738;9.324;2023-05-16T04:54:56;11.70;99.90
36132;DHT22;22185;48.738;9.324;2023-05-16T04:57:00;11.70;99.90
36132;DHT22;22185;48.738;9.324;2023-05-16T04:59:02;11.70;99.90
36132;DHT22;22185;48.738;9.324;2023-05-16T05:01:04;11.80;99.90
36132;DHT22;22185;48.738;9.324;2023-05-16T05:03:06;11.80;99.90
36132;DHT22;22185;48.738;9.324;2023-05-16T05:05:10;11.80;99.90
36132;DHT22;22185;48.738;9.324;2023-05-16T05:07:14;11.80;99.90
36132;DHT22;22185;48.738;9.324;2023-05-16T05:09:16;11.90;99.90
36132;DHT22;22185;48.738;9.324;2023-05-16T05:11:18;12.00;99.90
36132;DHT22;22185;48.738;9.324;2023-05-16T05:13:21;12.00;99.90
36132;DHT22;22185;48.738;9.324;2023-05-16T05:15:22;12.10;99.90
36132;DHT22;22185;48.738;9.324;2023-05-16T05:17:24;12.20;99.90
36132;DHT22;22185;48.738;9.324;2023-05-16T05:19:26;12.30;99.90
36132;DHT22;22185;48.738;9.324;2023-05-16T05:21:28;12.40;99.90
36132;DHT22;22185;48.738;9.324;2023-05-16T05:23:31;12.40;99.90
36132;DHT22;22185;48.738;9.324;2023-05-16T05:25:34;12.50;99.90
36132;DHT22;22185;48.738;9.324;2023-05-16T05:27:38;12.50;99.90
36132;DHT22;22185;48.738;9.324;2023-05-16T05:29:40;12.60;99.90
36132;DHT22;22185;48.738;9.324;2023-05-16T05:31:41;12.60;99.90
36132;DHT22;22185;48.738;9.324;2023-05-16T05:33:43;12.70;99.90
36132;DHT22;22185;48.738;9.324;2023-05-16T05:35:46;12.70;99.90
36132;DHT22;22185;48.738;9.324;2023-05-16T05:37:48;12.60;99.90
36132;DHT22;22185;48.738;9.324;2023-05-16T05:39:49;12.40;99.90
36132;DHT22;22185;48.738;9.324;2023-05-16T05:41:53;12.40;99.90
36132;DHT22;22185;48.738;9.324;2023-05-16T05:43:55;12.50;99.90
36132;DHT22;22185;48.738;9.324;2023-05-16T05:45:57;12.50;99.90
36132;DHT22;22185;48.738;9.324;2023-05-16T05:47:58;12.60;99.90
36132;DHT22;22185;48.738;9.324;2023-05-16T05:50:00;12.70;99.90
36132;DHT22;22185;48.738;9.324;2023-05-16T05:52:03;12.70;99.90
36132;DHT22;22185;48.738;9.324;2023-05-16T05:54:05;12.80;99.90
36132;DHT22;22185;48.738;9.324;2023-05-16T05:56:06;12.80;99.90
36132;DHT22;22185;48.738;9.324;2023-05-16T05:58:08;12.70;99.90
36132;DHT22;22185;48.738;9.324;2023-05-16T06:00:10;12.70;99.90
36132;DHT22;22185;48.738;9.324;2023-05-16T06:02:13;12.80;99.90
36132;DHT22;22185;48.738;9.324;2023-05-16T06:04:15;12.70;99.90
36132;DHT22;22185;48.738;9.324;2023-05-16T06:06:16;12.70;99.90
36132;DHT22;22185;48.738;9.324;2023-05-16T06:08:18;12.80;99.90
36132;DHT22;22185;48.738;9.324;2023-05-16T06:10:20;12.90;99.90
36132;DHT22;22185;48.738;9.324;2023-05-16T06:12:22;13.00;99.90
36132;DHT22;22185;48.738;9.324;2023-05-16T06:14:24;12.90;99.90
36132;DHT22;22185;48.738;9.324;2023-05-16T06:16:25;13.00;99.90
36132;DHT22;22185;48.738;9.324;2023-05-16T06:18:27;13.00;99.90
36132;DHT22;22185;48.738;9.324;2023-05-16T06:20:30;13.10;99.90
36132;DHT22;22185;48.738;9.324;2023-05-16T06:22:31;13.20;99.90
36132;DHT22;22185;48.738;9.324;2023-05-16T06:24:33;13.20;99.90
36132;DHT22;22185;48.738;9.324;2023-05-16T06:26:35;13.10;99.90
36132;DHT22;22185;48.738;9.324;2023-05-16T06:28:37;13.20;99.90
36132;DHT22;22185;48.738;9.324;2023-05-16T06:30:38;13.20;99.90
36132;DHT22;22185;48.738;9.324;2023-05-16T06:32:40;13.10;99.90
36132;DHT22;22185;48.738;9.324;2023-05-16T06:34:42;13.20;99.90
36132;DHT22;22185;48.738;9.324;2023-05-16T06:36:44;13.20;99.90
36132;DHT22;22185;48.738;9.324;2023-05-16T06:38:46;13.30;99.90
36132;DHT22;22185;48.738;9.324;2023-05-16T06:40:48;13.30;99.90
36132;DHT22;22185;48.738;9.324;2023-05-16T06:42:50;13.30;99.90
36132;DHT22;22185;48.738;9.324;2023-05-16T06:44:53;13.40;99.90
36132;DHT22;22185;48.738;9.324;2023-05-16T06:46:55;13.50;99.90
36132;DHT22;22185;48.738;9.324;2023-05-16T06:48:56;13.30;99.90
36132;DHT22;22185;48.738;9.324;2023-05-16T06:50:58;13.40;99.90
36132;DHT22;22185;48.738;9.324;2023-05-16T06:53:00;13.40;99.90
36132;DHT22;22185;48.738;9.324;2023-05-16T06:55:05;13.40;99.90
36132;DHT22;22185;48.738;9.324;2023-05-16T06:57:07;13.40;99.90
36132;DHT22;22185;48.738;9.324;2023-05-16T06:59:09;13.50;99.90
36132;DHT22;22185;48.738;9.324;2023-05-16T07:01:11;13.30;99.90
36132;DHT22;22185;48.738;9.324;2023-05-16T07:03:13;13.40;99.90
36132;DHT22;22185;48.738;9.324;2023-05-16T07:05:15;13.40;99.90
36132;DHT22;22185;48.738;9.324;2023-05-16T07:07:17;13.40;99.90
36132;DHT22;22185;48.738;9.324;2023-05-16T07:09:19;13.30;99.90
36132;DHT22;22185;48.738;9.324;2023-05-16T07:11:21;13.40;99.90
36132;DHT22;22185;48.738;9.324;2023-05-16T07:13:23;13.50;99.90
36132;DHT22;22185;48.738;9.324;2023-05-16T07:15:24;13.90;99.90
36132;DHT22;22185;48.738;9.324;2023-05-16T07:17:27;14.10;99.90
36132;DHT22;22185;48.738;9.324;2023-05-16T07:19:29;14.10;99.90
36132;DHT22;22185;48.738;9.324;2023-05-16T07:21:31;14.00;99.90
36132;DHT22;22185;48.738;9.324;2023-05-16T07:23:35;14.10;99.90
36132;DHT22;22185;48.738;9.324;2023-05-16T07:25:37;14.00;99.90
36132;DHT22;22185;48.738;9.324;2023-05-16T07:27:39;13.80;99.90
36132;DHT22;22185;48.738;9.324;2023-05-16T07:29:45;13.80;99.90
36132;DHT22;22185;48.738;9.324;2023-05-16T07:31:47;14.00;99.90
36132;DHT22;22185;48.738;9.324;2023-05-16T07:33:50;14.10;99.90
36132;DHT22;22185;48.738;9.324;2023-05-16T07:35:52;14.20;99.90
36132;DHT22;22185;48.738;9.324;2023-05-16T07:38:08;14.20;99.90
36132;DHT22;22185;48.738;9.324;2023-05-16T07:40:11;14.50;99.90
36132;DHT22;22185;48.738;9.324;2023-05-16T07:42:12;14.50;99.90
36132;DHT22;22185;48.738;9.324;2023-05-16T07:44:14;14.60;99.90
36132;DHT22;22185;48.738;9.324;2023-05-16T07:46:17;14.60;99.90
36132;DHT22;22185;48.738;9.324;2023-05-16T07:48:19;14.30;99.90
36132;DHT22;22185;48.738;9.324;2023-05-16T07:50:21;14.20;99.90
36132;DHT22;22185;48.738;9.324;2023-05-16T07:52:23;14.20;99.90
36132;DHT22;22185;48.738;9.324;2023-05-16T07:54:24;14.10;99.90
36132;DHT22;22185;48.738;9.324;2023-05-16T07:56:26;14.10;99.90
36132;DHT22;22185;48.738;9.324;2023-05-16T07:58:28;14.20;99.90
36132;DHT22;22185;48.738;9.324;2023-05-16T08:00:30;14.00;99.90
36132;DHT22;22185;48.738;9.324;2023-05-16T08:02:32;13.90;99.90
36132;DHT22;22185;48.738;9.324;2023-05-16T08:04:34;13.80;99.90
36132;DHT22;22185;48.738;9.324;2023-05-16T08:06:36;13.60;99.90
36132;DHT22;22185;48.738;9.324;2023-05-16T08:08:38;13.70;99.90
36132;DHT22;22185;48.738;9.324;2023-05-16T08:10:40;13.90;99.90
36132;DHT22;22185;48.738;9.324;2023-05-16T08:12:41;14.00;99.90
36132;DHT22;22185;48.738;9.324;2023-05-16T08:14:44;13.60;99.90
36132;DHT22;22185;48.738;9.324;2023-05-16T08:16:46;13.60;99.90
36132;DHT22;22185;48.738;9.324;2023-05-16T08:18:48;13.80;99.90
36132;DHT22;22185;48.738;9.324;2023-05-16T08:20:50;13.60;99.90
36132;DHT22;22185;48.738;9.324;2023-05-16T08:22:52;13.50;99.90
36132;DHT22;22185;48.738;9.324;2023-05-16T08:24:54;13.70;99.90
36132;DHT22;22185;48.738;9.324;2023-05-16T08:27:00;13.70;99.90
36132;DHT22;22185;48.738;9.324;2023-05-16T08:29:02;13.50;99.90
36132;DHT22;22185;48.738;9.324;2023-05-16T08:31:04;13.50;99.90
36132;DHT22;22185;48.738;9.324;2023-05-16T08:33:06;13.50;99.90
36132;DHT22;22185;48.738;9.324;2023-05-16T08:35:08;13.70;99.90
36132;DHT22;22185;48.738;9.324;2023-05-16T08:37:11;13.70;99.90
36132;DHT22;22185;48.738;9.324;2023-05-16T08:39:13;13.40;99.90
36132;DHT22;22185;48.738;9.324;2023-05-16T08:41:15;13.50;99.90
36132;DHT22;22185;48.738;9.324;2023-05-16T08:43:16;13.70;99.90
36132;DHT22;22185;48.738;9.324;2023-05-16T08:45:18;13.80;99.90
36132;DHT22;22185;48.738;9.324;2023-05-16T08:47:20;13.20;99.90
36132;DHT22;22185;48.738;9.324;2023-05-16T08:49:23;13.10;99.90
36132;DHT22;22185;48.738;9.324;2023-05-16T08:51:28;13.20;99.90
36132;DHT22;22185;48.738;9.324;2023-05-16T08:53:36;13.20;99.90
36132;DHT22;22185;48.738;9.324;2023-05-16T08:55:39;13.30;99.90
36132;DHT22;22185;48.738;9.324;2023-05-16T08:57:41;13.30;99.90
36132;DHT22;22185;48.738;9.324;2023-05-16T08:59:43;13.10;99.90
36132;DHT22;22185;48.738;9.324;2023-05-16T09:01:45;13.20;99.90
36132;DHT22;22185;48.738;9.324;2023-05-16T09:03:48;13.30;99.90
36132;DHT22;22185;48.738;9.324;2023-05-16T09:05:50;13.20;99.90
36132;DHT22;22185;48.738;9.324;2023-05-16T09:07:53;13.10;99.90
36132;DHT22;22185;48.738;9.324;2023-05-16T09:09:54;13.20;99.90
36132;DHT22;22185;48.738;9.324;2023-05-16T09:11:56;13.10;99.90
36132;DHT22;22185;48.738;9.324;2023-05-16T09:13:58;13.10;99.90
36132;DHT22;22185;48.738;9.324;2023-05-16T09:16:06;13.20;99.90
36132;DHT22;22185;48.738;9.324;2023-05-16T09:18:10;13.30;99.90
36132;DHT22;22185;48.738;9.324;2023-05-16T09:20:16;13.00;99.90
36132;DHT22;22185;48.738;9.324;2023-05-16T09:22:18;13.20;99.90
36132;DHT22;22185;48.738;9.324;2023-05-16T09:24:20;13.10;99.90
36132;DHT22;22185;48.738;9.324;2023-05-16T09:26:27;13.20;99.90
36132;DHT22;22185;48.738;9.324;2023-05-16T09:28:29;13.10;99.90
36132;DHT22;22185;48.738;9.324;2023-05-16T09:30:32;13.20;99.90
36132;DHT22;22185;48.738;9.324;2023-05-16T09:32:37;13.20;99.90
36132;DHT22;22185;48.738;9.324;2023-05-16T09:34:44;13.30;99.90
36132;DHT22;22185;48.738;9.324;2023-05-16T09:36:46;13.30;99.90
36132;DHT22;22185;48.738;9.324;2023-05-16T09:38:51;13.20;99.90
36132;DHT22;22185;48.738;9.324;2023-05-16T09:40:53;13.20;99.90
36132;DHT22;22185;48.738;9.324;2023-05-16T09:43:05;13.30;99.90
36132;DHT22;22185;48.738;9.324;2023-05-16T09:45:07;13.30;99.90
36132;DHT22;22185;48.738;9.324;2023-05-16T09:47:15;13.20;99.90
36132;DHT22;22185;48.738;9.324;2023-05-16T09:49:18;13.00;99.90
36132;DHT22;22185;48.738;9.324;2023-05-16T09:51:22;13.10;99.90
36132;DHT22;22185;48.738;9.324;2023-05-16T09:53:28;13.10;99.90
36132;DHT22;22185;48.738;9.324;2023-05-16T09:55:30;13.10;99.90
36132;DHT22;22185;48.738;9.324;2023-05-16T09:57:33;13.00;99.90
36132;DHT22;22185;48.738;9.324;2023-05-16T09:59:37;12.80;99.90
36132;DHT22;22185;48.738;9.324;2023-05-16T10:01:39;12.80;99.90
36132;DHT22;22185;48.738;9.324;2023-05-16T10:03:41;12.90;99.90
36132;DHT22;22185;48.738;9.324;2023-05-16T10:05:43;13.10;99.90
36132;DHT22;22185;48.738;9.324;2023-05-16T10:07:46;13.10;99.90
36132;DHT22;22185;48.738;9.324;2023-05-16T10:09:49;13.00;99.90
36132;DHT22;22185;48.738;9.324;2023-05-16T10:11:53;12.90;99.90
36132;DHT22;22185;48.738;9.324;2023-05-16T10:13:56;12.90;99.90
36132;DHT22;22185;48.738;9.324;2023-05-16T10:15:58;13.00;99.90
36132;DHT22;22185;48.738;9.324;2023-05-16T10:18:01;13.20;99.90
36132;DHT22;22185;48.738;9.324;2023-05-16T10:20:04;13.20;99.90
36132;DHT22;22185;48.738;9.324;2023-05-16T10:22:07;13.30;99.90
36132;DHT22;22185;48.738;9.324;2023-05-16T10:24:10;13.40;99.90
36132;DHT22;22185;48.738;9.324;2023-05-16T10:26:12;13.50;99.90
36132;DHT22;22185;48.738;9.324;2023-05-16T10:28:15;13.60;99.90
36132;DHT22;22185;48.738;9.324;2023-05-16T10:30:17;13.60;99.90
36132;DHT22;22185;48.738;9.324;2023-05-16T10:32:20;13.40;99.90
36132;DHT22;22185;48.738;9.324;2023-05-16T10:34:24;13.40;99.90
36132;DHT22;22185;48.738;9.324;2023-05-16T10:36:26;13.50;99.90
36132;DHT22;22185;48.738;9.324;2023-05-16T10:38:27;13.60;99.90
36132;DHT22;22185;48.738;9.324;2023-05-16T10:40:30;13.60;99.90
36132;DHT22;22185;48.738;9.324;2023-05-16T10:42:32;13.70;99.90
36132;DHT22;22185;48.738;9.324;2023-05-16T10:44:37;13.70;99.90
36132;DHT22;22185;48.738;9.324;2023-05-16T10:46:39;13.60;99.90
36132;DHT22;22185;48.738;9.324;2023-05-16T10:48:43;13.60;99.90
36132;DHT22;22185;48.738;9.324;2023-05-16T10:50:45;13.40;99.90
36132;DHT22;22185;48.738;9.324;2023-05-16T10:52:47;13.40;99.90
36132;DHT22;22185;48.738;9.324;2023-05-16T10:54:53;13.20;99.90
36132;DHT22;22185;48.738;9.324;2023-05-16T10:56:54;13.30;99.90
36132;DHT22;22185;48.738;9.324;2023-05-16T10:58:57;13.40;99.90
36132;DHT22;22185;48.738;9.324;2023-05-16T11:03:23;13.40;99.90
36132;DHT22;22185;48.738;9.324;2023-05-16T11:05:29;13.30;99.90
36132;DHT22;22185;48.738;9.324;2023-05-16T11:07:32;13.50;99.90
36132;DHT22;22185;48.738;9.324;2023-05-16T11:09:34;13.60;99.90
36132;DHT22;22185;48.738;9.324;2023-05-16T11:13:52;13.60;99.90
36132;DHT22;22185;48.738;9.324;2023-05-16T11:16:30;13.70;99.90
36132;DHT22;22185;48.738;9.324;2023-05-16T11:18:24;13.80;99.90
36132;DHT22;22185;48.738;9.324;2023-05-16T11:20:29;13.80;99.90
36132;DHT22;22185;48.738;9.324;2023-05-16T11:22:37;13.80;99.90
36132;DHT22;22185;48.738;9.324;2023-05-16T11:25:00;13.60;99.90
36132;DHT22;22185;48.738;9.324;2023-05-16T11:27:03;13.80;99.90
36132;DHT22;22185;48.738;9.324;2023-05-16T11:29:06;13.80;99.90
36132;DHT22;22185;48.738;9.324;2023-05-16T11:31:08;13.70;99.90
36132;DHT22;22185;48.738;9.324;2023-05-16T11:33:10;13.70;99.90
36132;DHT22;22185;48.738;9.324;2023-05-16T11:35:17;13.80;99.90
36132;DHT22;22185;48.738;9.324;2023-05-16T11:37:26;13.80;99.90
36132;DHT22;22185;48.738;9.324;2023-05-16T11:39:29;13.80;99.90
36132;DHT22;22185;48.738;9.324;2023-05-16T11:41:31;13.90;99.90
36132;DHT22;22185;48.738;9.324;2023-05-16T11:43:41;13.80;99.90
36132;DHT22;22185;48.738;9.324;2023-05-16T11:45:43;13.60;99.90
36132;DHT22;22185;48.738;9.324;2023-05-16T11:47:46;13.50;99.90
36132;DHT22;22185;48.738;9.324;2023-05-16T11:49:49;13.60;99.90
36132;DHT22;22185;48.738;9.324;2023-05-16T11:51:51;13.50;99.90
36132;DHT22;22185;48.738;9.324;2023-05-16T11:53:54;13.30;99.90
36132;DHT22;22185;48.738;9.324;2023-05-16T11:55:56;13.20;99.90
36132;DHT22;22185;48.738;9.324;2023-05-16T11:58:01;13.10;99.90
36132;DHT22;22185;48.738;9.324;2023-05-16T12:00:03;12.90;99.90
36132;DHT22;22185;48.738;9.324;2023-05-16T12:02:08;13.10;99.90
36132;DHT22;22185;48.738;9.324;2023-05-16T12:04:11;13.00;99.90
36132;DHT22;22185;48.738;9.324;2023-05-16T12:06:14;13.30;99.90
36132;DHT22;22185;48.738;9.324;2023-05-16T12:08:16;13.40;99.90
36132;DHT22;22185;48.738;9.324;2023-05-16T12:10:18;13.40;99.90
36132;DHT22;22185;48.738;9.324;2023-05-16T12:12:20;13.30;99.90
36132;DHT22;22185;48.738;9.324;2023-05-16T12:14:22;13.20;99.90
36132;DHT22;22185;48.738;9.324;2023-05-16T12:16:24;13.20;99.90
36132;DHT22;22185;48.738;9.324;2023-05-16T12:18:26;13.20;99.90
36132;DHT22;22185;48.738;9.324;2023-05-16T12:20:28;13.20;99.90
36132;DHT22;22185;48.738;9.324;2023-05-16T12:22:30;12.90;99.90
36132;DHT22;22185;48.738;9.324;2023-05-16T12:24:32;13.00;99.90
36132;DHT22;22185;48.738;9.324;2023-05-16T12:26:34;13.10;99.90
36132;DHT22;22185;48.738;9.324;2023-05-16T12:28:36;13.20;99.90
36132;DHT22;22185;48.738;9.324;2023-05-16T12:30:40;13.30;99.90
36132;DHT22;22185;48.738;9.324;2023-05-16T12:32:45;13.10;99.90
36132;DHT22;22185;48.738;9.324;2023-05-16T12:34:48;13.10;99.90
36132;DHT22;22185;48.738;9.324;2023-05-16T12:36:59;13.10;99.90
36132;DHT22;22185;48.738;9.324;2023-05-16T12:39:02;13.10;99.90
36132;DHT22;22185;48.738;9.324;2023-05-16T12:41:04;13.30;99.90
36132;DHT22;22185;48.738;9.324;2023-05-16T12:43:15;13.30;99.90
36132;DHT22;22185;48.738;9.324;2023-05-16T12:45:18;13.30;99.90
36132;DHT22;22185;48.738;9.324;2023-05-16T12:47:20;13.40;99.90
36132;DHT22;22185;48.738;9.324;2023-05-16T12:49:23;13.40;99.90
36132;DHT22;22185;48.738;9.324;2023-05-16T12:51:26;13.40;99.90
36132;DHT22;22185;48.738;9.324;2023-05-16T12:53:34;13.30;99.90
36132;DHT22;22185;48.738;9.324;2023-05-16T12:55:43;13.50;99.90
36132;DHT22;22185;48.738;9.324;2023-05-16T12:57:45;13.40;99.90
36132;DHT22;22185;48.738;9.324;2023-05-16T12:59:50;13.60;99.90
36132;DHT22;22185;48.738;9.324;2023-05-16T13:01:52;13.80;99.90
36132;DHT22;22185;48.738;9.324;2023-05-16T13:03:54;13.80;99.90
36132;DHT22;22185;48.738;9.324;2023-05-16T13:05:56;13.90;99.90
36132;DHT22;22185;48.738;9.324;2023-05-16T13:07:58;13.60;99.90
36132;DHT22;22185;48.738;9.324;2023-05-16T13:09:59;13.70;99.90
36132;DHT22;22185;48.738;9.324;2023-05-16T13:12:01;13.70;99.90
36132;DHT22;22185;48.738;9.324;2023-05-16T13:14:04;13.60;99.90
36132;DHT22;22185;48.738;9.324;2023-05-16T13:16:06;13.70;99.90